Time;durP1;ratioP1;P1;durP2;ratioP2;P2;SDS_P1;SDS_P2;PMS_P1;PMS_P2;Temp;Humidity;BMP_temperature;BMP_pressure;BME280_temperature;BME280_humidity;BME280_pressure;Samples;Min_cycle;Max_cycle;Signal;HPM_P1;HPM_P2
2021/12/29 00:01:00;;;;;;;82.15;11.73;;;7.30;94.30;;;;;;5130602;27;20051;-66
2021/12/29 00:03:26;;;;;;;107.20;12.55;;;7.30;94.40;;;;;;5127834;27;20046;-66
2021/12/29 00:05:51;;;;;;;109.47;11.35;;;7.30;94.40;;;;;;5126493;27;20068;-65
2021/12/29 00:08:17;;;;;;;85.45;12.48;;;7.30;94.40;;;;;;5130671;27;20554;-66
2021/12/29 00:10:43;;;;;;;77.63;14.60;;;7.30;94.40;;;;;;5129942;27;20043;-66
2021/12/29 00:13:08;;;;;;;69.18;13.10;;;7.30;94.40;;;;;;5122195;27;20092;-65
2021/12/29 00:15:36;;;;;;;66.13;13.55;;;7.30;94.40;;;;;;5129398;27;20615;-65
2021/12/29 00:18:02;;;;;;;57.35;13.38;;;7.40;94.30;;;;;;5111009;27;20702;-65
2021/12/29 00:20:30;;;;;;;52.22;13.23;;;7.30;94.30;;;;;;5130117;27;20038;-66
2021/12/29 00:23:02;;;;;;;53.00;12.70;;;7.30;94.30;;;;;;5111425;28;20085;-65
2021/12/29 00:25:28;;;;;;;73.40;13.77;;;7.30;94.30;;;;;;5129431;27;20038;-65
2021/12/29 00:27:55;;;;;;;67.55;13.98;;;7.30;94.30;;;;;;5130560;27;20624;-65
2021/12/29 00:30:22;;;;;;;48.22;11.77;;;7.30;94.40;;;;;;5129859;27;20404;-66
2021/12/29 00:32:48;;;;;;;40.00;9.93;;;7.30;94.50;;;;;;5125096;27;20074;-65
2021/12/29 00:35:14;;;;;;;58.75;11.05;;;7.30;94.50;;;;;;5113915;27;20061;-66
2021/12/29 00:37:41;;;;;;;50.92;10.25;;;7.30;94.50;;;;;;5130347;27;20059;-65
2021/12/29 00:40:09;;;;;;;70.38;9.80;;;7.30;94.50;;;;;;5122314;27;20062;-65
2021/12/29 00:42:35;;;;;;;56.85;8.90;;;7.30;94.60;;;;;;5129624;27;20096;-65
2021/12/29 00:45:00;;;;;;;50.33;8.10;;;7.30;94.60;;;;;;5129939;28;20436;-66
2021/12/29 00:47:30;;;;;;;53.95;8.48;;;7.30;94.70;;;;;;5129970;28;20051;-65
2021/12/29 00:49:56;;;;;;;50.95;7.82;;;7.30;94.70;;;;;;5129384;28;20095;-65
2021/12/29 00:52:21;;;;;;;58.10;7.43;;;7.30;94.60;;;;;;5109982;28;20118;-65
2021/12/29 00:54:47;;;;;;;35.30;8.00;;;7.30;94.70;;;;;;5117218;28;20039;-65
2021/12/29 00:57:13;;;;;;;64.38;8.07;;;7.30;94.70;;;;;;5127318;27;20039;-65
2021/12/29 00:59:38;;;;;;;57.70;8.40;;;7.30;94.70;;;;;;5134249;27;20534;-66
2021/12/29 01:02:05;;;;;;;59.65;8.25;;;7.30;94.70;;;;;;5133553;27;20050;-65
2021/12/29 01:04:30;;;;;;;59.10;8.40;;;7.30;94.80;;;;;;5134137;27;20046;-65
2021/12/29 01:06:56;;;;;;;75.93;9.95;;;7.30;94.90;;;;;;5133570;27;20485;-65
2021/12/29 01:09:22;;;;;;;52.72;10.73;;;7.30;94.90;;;;;;5133102;27;20431;-66
2021/12/29 01:11:48;;;;;;;49.42;10.73;;;7.30;94.90;;;;;;5131320;27;20035;-66
2021/12/29 01:14:21;;;;;;;59.55;10.73;;;7.40;94.90;;;;;;5133851;27;20134;-66
2021/12/29 01:16:46;;;;;;;57.60;12.98;;;7.40;94.80;;;;;;5133785;27;20049;-66
2021/12/29 01:19:18;;;;;;;62.30;13.68;;;7.40;94.90;;;;;;5133719;27;20039;-65
2021/12/29 01:21:46;;;;;;;68.57;14.10;;;7.50;94.90;;;;;;5132652;27;20043;-66
2021/12/29 01:24:13;;;;;;;60.30;14.15;;;7.50;94.90;;;;;;5115705;27;20462;-66
2021/12/29 01:26:42;;;;;;;65.25;14.48;;;7.50;94.90;;;;;;5133118;27;20608;-65
2021/12/29 01:29:08;;;;;;;54.95;14.05;;;7.50;94.90;;;;;;5133571;27;20058;-65
2021/12/29 01:31:34;;;;;;;44.65;15.18;;;7.50;95.00;;;;;;5132022;27;20381;-65
2021/12/29 01:34:04;;;;;;;51.53;15.88;;;7.60;95.00;;;;;;5133710;27;20050;-66
2021/12/29 01:36:31;;;;;;;47.28;14.80;;;7.60;95.00;;;;;;5132392;27;20095;-65
2021/12/29 01:38:57;;;;;;;41.75;14.55;;;7.60;95.00;;;;;;5133539;27;20070;-65
2021/12/29 01:41:23;;;;;;;34.80;16.13;;;7.70;95.00;;;;;;5114767;27;20547;-66
2021/12/29 01:43:48;;;;;;;35.20;15.60;;;7.70;95.00;;;;;;5132962;27;20204;-65
2021/12/29 01:46:14;;;;;;;33.10;14.55;;;7.70;95.00;;;;;;5132429;27;20035;-65
2021/12/29 01:48:40;;;;;;;36.67;15.38;;;7.70;95.00;;;;;;5114927;27;20043;-66
2021/12/29 01:51:06;;;;;;;37.53;16.05;;;7.70;95.00;;;;;;5132446;27;20117;-65
2021/12/29 01:53:33;;;;;;;40.10;14.77;;;7.70;94.90;;;;;;5119028;27;20040;-66
2021/12/29 01:55:59;;;;;;;33.20;14.65;;;7.70;95.00;;;;;;5112678;28;20116;-66
2021/12/29 01:58:26;;;;;;;38.95;13.32;;;7.70;94.90;;;;;;5113969;27;20480;-66
2021/12/29 02:00:54;;;;;;;35.10;13.50;;;7.70;94.90;;;;;;5132887;27;20080;-66
2021/12/29 02:03:20;;;;;;;24.02;12.93;;;7.70;94.90;;;;;;5132395;27;20126;-66
2021/12/29 02:05:46;;;;;;;28.45;14.32;;;7.70;94.90;;;;;;5132428;27;20043;-65
2021/12/29 02:08:12;;;;;;;29.55;13.60;;;7.70;94.90;;;;;;5132030;27;20506;-66
2021/12/29 02:10:44;;;;;;;27.02;12.05;;;7.70;95.00;;;;;;5132567;27;20469;-65
2021/12/29 02:13:12;;;;;;;32.90;11.27;;;7.70;94.90;;;;;;5132092;27;20566;-66
2021/12/29 02:15:38;;;;;;;20.95;10.43;;;7.70;94.90;;;;;;5132026;27;20049;-65
2021/12/29 02:18:12;;;;;;;18.73;9.73;;;7.70;94.90;;;;;;5132552;27;20122;-66
2021/12/29 02:20:38;;;;;;;19.70;10.30;;;7.70;94.90;;;;;;5132956;27;20126;-65
2021/12/29 02:23:21;;;;;;;18.65;9.15;;;7.70;94.90;;;;;;5128663;27;20115;-65
2021/12/29 02:25:51;;;;;;;13.43;8.77;;;7.60;94.90;;;;;;5112073;28;20160;-65
2021/12/29 02:28:27;;;;;;;13.80;8.70;;;7.70;94.90;;;;;;5096564;28;20055;-66
2021/12/29 02:30:55;;;;;;;17.42;8.57;;;7.70;94.90;;;;;;5124361;27;20678;-66
2021/12/29 02:33:23;;;;;;;12.00;8.30;;;7.70;94.90;;;;;;5132325;27;20047;-66
2021/12/29 02:35:49;;;;;;;15.23;7.57;;;7.70;94.90;;;;;;5132191;27;20051;-66
2021/12/29 02:38:46;;;;;;;17.50;7.57;;;7.70;94.90;;;;;;5128587;27;20039;-66
2021/12/29 02:41:12;;;;;;;13.23;7.47;;;7.80;94.90;;;;;;5123958;27;20069;-65
2021/12/29 02:43:39;;;;;;;14.02;6.75;;;7.70;94.90;;;;;;5131985;27;20618;-66
2021/12/29 02:46:11;;;;;;;15.02;7.40;;;7.70;94.90;;;;;;5131573;27;20047;-66
2021/12/29 02:48:52;;;;;;;9.82;6.78;;;7.70;94.80;;;;;;5130790;27;20082;-66
2021/12/29 02:51:18;;;;;;;12.40;6.78;;;7.70;94.90;;;;;;5131889;27;20058;-65
2021/12/29 02:53:44;;;;;;;9.73;6.03;;;7.70;94.80;;;;;;5113058;27;20385;-66
2021/12/29 02:56:09;;;;;;;10.00;5.93;;;7.80;94.80;;;;;;5131562;27;20043;-66
2021/12/29 02:58:35;;;;;;;12.75;6.05;;;7.80;94.80;;;;;;5113572;27;20738;-66
2021/12/29 03:01:04;;;;;;;15.45;6.30;;;7.80;94.80;;;;;;5131658;27;20070;-66
2021/12/29 03:03:30;;;;;;;9.55;6.25;;;7.70;94.80;;;;;;5131661;27;20043;-66
2021/12/29 03:05:56;;;;;;;16.67;6.93;;;7.70;94.90;;;;;;5131753;27;20095;-65
2021/12/29 03:08:23;;;;;;;15.75;6.78;;;7.80;94.90;;;;;;5130372;27;20035;-65
2021/12/29 03:10:52;;;;;;;17.85;7.82;;;7.80;94.90;;;;;;5130983;27;20046;-65
2021/12/29 03:13:26;;;;;;;13.30;7.57;;;7.80;94.90;;;;;;5118862;27;20054;-66
2021/12/29 03:15:52;;;;;;;24.83;8.65;;;7.80;94.90;;;;;;5131071;27;20054;-65
2021/12/29 03:18:18;;;;;;;21.70;9.35;;;7.90;94.90;;;;;;5131481;27;20087;-66
2021/12/29 03:20:44;;;;;;;22.10;8.85;;;7.90;94.90;;;;;;5131078;27;20043;-65
2021/12/29 03:23:10;;;;;;;20.08;9.10;;;7.90;94.90;;;;;;5130507;27;20456;-66
2021/12/29 03:25:36;;;;;;;17.40;8.38;;;7.90;94.90;;;;;;5131644;27;20047;-66
2021/12/29 03:28:02;;;;;;;22.40;8.55;;;7.80;94.90;;;;;;5126105;27;20042;-66
2021/12/29 03:30:35;;;;;;;24.40;9.00;;;7.90;94.90;;;;;;5125841;27;20036;-65
2021/12/29 03:33:07;;;;;;;15.93;7.85;;;7.90;94.90;;;;;;5113454;27;20058;-66
2021/12/29 03:35:41;;;;;;;21.60;9.90;;;7.80;94.80;;;;;;5131033;27;20760;-66
2021/12/29 03:38:14;;;;;;;26.85;9.00;;;7.90;94.90;;;;;;5130039;27;20046;-65
2021/12/29 03:40:40;;;;;;;26.38;8.70;;;7.80;94.80;;;;;;5131430;27;20471;-65
2021/12/29 03:43:08;;;;;;;23.85;9.38;;;7.90;94.80;;;;;;5130703;27;20047;-65
2021/12/29 03:45:34;;;;;;;24.38;8.45;;;7.90;94.80;;;;;;5130239;27;20035;-65
2021/12/29 03:48:00;;;;;;;25.30;9.63;;;7.90;94.80;;;;;;5130788;27;20118;-65
2021/12/29 03:50:26;;;;;;;33.05;9.88;;;7.90;94.80;;;;;;5130438;27;20143;-66
2021/12/29 03:52:52;;;;;;;26.92;10.07;;;7.90;94.80;;;;;;5129453;27;20079;-66
2021/12/29 03:55:18;;;;;;;21.70;9.18;;;7.90;94.80;;;;;;5129348;27;20126;-66
2021/12/29 03:57:43;;;;;;;29.17;10.55;;;7.80;94.70;;;;;;5111670;27;20519;-66
2021/12/29 04:00:13;;;;;;;22.17;9.77;;;7.80;94.70;;;;;;5124090;27;20044;-65
2021/12/29 04:02:40;;;;;;;30.10;10.07;;;7.80;94.70;;;;;;5118300;27;20232;-65
2021/12/29 04:05:07;;;;;;;33.42;10.00;;;7.80;94.70;;;;;;5130650;27;20121;-65
2021/12/29 04:07:33;;;;;;;34.28;9.52;;;7.80;94.70;;;;;;5123808;27;20539;-65
2021/12/29 04:09:59;;;;;;;37.75;13.10;;;7.70;94.70;;;;;;5110200;28;20062;-65
2021/12/29 04:12:25;;;;;;;27.33;9.68;;;7.70;94.80;;;;;;5111141;28;20130;-65
2021/12/29 04:14:51;;;;;;;27.10;10.00;;;7.70;94.80;;;;;;5125348;27;20490;-66
2021/12/29 04:17:18;;;;;;;34.42;10.35;;;7.60;94.80;;;;;;5106762;28;20039;-65
2021/12/29 04:22:31;;;;;;;45.50;11.68;;;7.60;94.70;;;;;;5102457;28;20126;-65
2021/12/29 04:24:57;;;;;;;32.72;11.00;;;7.70;94.70;;;;;;5125590;27;20176;-66
2021/12/29 04:27:25;;;;;;;36.33;10.43;;;7.60;94.70;;;;;;5129992;27;20036;-66
2021/12/29 04:29:51;;;;;;;27.50;9.52;;;7.70;94.70;;;;;;5130303;27;20043;-66
2021/12/29 04:32:17;;;;;;;27.25;10.38;;;7.70;94.70;;;;;;5110567;27;20046;-65
2021/12/29 04:34:43;;;;;;;31.20;9.75;;;7.70;94.70;;;;;;5130033;27;20122;-65
2021/12/29 04:37:08;;;;;;;24.83;10.40;;;7.70;94.60;;;;;;5130374;27;20122;-65
2021/12/29 04:39:34;;;;;;;32.63;11.07;;;7.70;94.60;;;;;;5114960;27;20126;-65
2021/12/29 04:42:00;;;;;;;34.95;11.57;;;7.70;94.60;;;;;;5118818;28;20040;-65
2021/12/29 04:44:25;;;;;;;24.63;10.65;;;7.60;94.60;;;;;;5091674;28;20043;-65
2021/12/29 04:46:54;;;;;;;18.70;10.02;;;7.70;94.60;;;;;;5109508;28;20050;-64
2021/12/29 04:49:24;;;;;;;21.38;10.38;;;7.70;94.50;;;;;;5110891;28;20055;-65
2021/12/29 04:52:03;;;;;;;22.35;10.00;;;7.70;94.50;;;;;;5110061;28;20051;-65
2021/12/29 04:54:31;;;;;;;27.33;11.02;;;7.60;94.60;;;;;;5110625;28;20557;-65
2021/12/29 04:56:58;;;;;;;31.50;11.15;;;7.70;94.60;;;;;;5103109;28;20047;-65
2021/12/29 04:59:25;;;;;;;29.00;10.10;;;7.60;94.60;;;;;;5129565;28;20066;-65
2021/12/29 05:01:51;;;;;;;21.88;9.82;;;7.60;94.60;;;;;;5129569;27;20047;-65
2021/12/29 05:04:22;;;;;;;25.63;10.27;;;7.60;94.60;;;;;;5129923;28;20043;-65
2021/12/29 05:09:33;;;;;;;25.83;9.90;;;7.60;94.60;;;;;;5129543;28;20070;-65
2021/12/29 05:12:00;;;;;;;22.73;10.07;;;7.60;94.60;;;;;;5129243;27;20729;-65
2021/12/29 05:14:26;;;;;;;21.60;9.57;;;7.60;94.60;;;;;;5129778;27;20051;-65
2021/12/29 05:16:51;;;;;;;22.98;10.15;;;7.70;94.60;;;;;;5129690;28;20065;-65
2021/12/29 05:19:17;;;;;;;27.70;9.40;;;7.60;94.60;;;;;;5130009;28;20051;-65
2021/12/29 05:21:43;;;;;;;25.88;10.35;;;7.70;94.50;;;;;;5129392;27;20035;-65
2021/12/29 05:24:09;;;;;;;28.42;10.73;;;7.70;94.60;;;;;;5098672;28;20101;-65
2021/12/29 05:26:35;;;;;;;26.70;10.20;;;7.70;94.60;;;;;;5103746;28;20046;-65
2021/12/29 05:29:02;;;;;;;31.13;11.93;;;7.70;94.60;;;;;;5129902;27;20043;-65
2021/12/29 05:31:28;;;;;;;36.33;10.55;;;7.70;94.60;;;;;;5129035;27;20039;-65
2021/12/29 05:33:56;;;;;;;34.60;10.20;;;7.70;94.60;;;;;;5129818;27;20552;-66
2021/12/29 05:36:21;;;;;;;27.98;10.57;;;7.70;94.60;;;;;;5126849;27;20047;-65
2021/12/29 05:38:47;;;;;;;25.77;9.80;;;7.70;94.60;;;;;;5129094;28;20391;-65
2021/12/29 05:41:13;;;;;;;30.38;10.50;;;7.80;94.60;;;;;;5129436;28;20038;-65
2021/12/29 05:43:38;;;;;;;24.38;9.40;;;7.80;94.60;;;;;;5129253;27;20039;-66
2021/12/29 05:46:04;;;;;;;22.92;10.13;;;7.70;94.60;;;;;;5132819;27;20399;-65
2021/12/29 05:48:30;;;;;;;38.10;12.00;;;7.70;94.60;;;;;;5132751;27;20120;-65
2021/12/29 05:50:56;;;;;;;24.10;9.38;;;7.70;94.60;;;;;;5106726;27;20044;-65
2021/12/29 05:53:21;;;;;;;25.23;9.13;;;7.70;94.60;;;;;;5131960;27;20100;-65
2021/12/29 05:55:47;;;;;;;23.75;9.52;;;7.70;94.60;;;;;;5129865;27;20031;-65
2021/12/29 05:58:13;;;;;;;23.25;9.20;;;7.70;94.60;;;;;;5125795;27;20384;-65
2021/12/29 06:00:40;;;;;;;18.77;7.68;;;7.70;94.50;;;;;;5094439;28;20416;-65
2021/12/29 06:03:06;;;;;;;26.63;8.23;;;7.70;94.60;;;;;;5081035;28;20121;-65
2021/12/29 06:05:32;;;;;;;27.98;8.50;;;7.70;94.60;;;;;;5078918;28;20040;-65
2021/12/29 06:07:58;;;;;;;33.22;9.00;;;7.60;94.60;;;;;;5071011;28;20523;-66
2021/12/29 06:10:24;;;;;;;39.95;9.05;;;7.60;94.60;;;;;;5088029;28;20032;-66
2021/12/29 06:12:49;;;;;;;37.75;9.52;;;7.70;94.60;;;;;;5090507;28;20082;-65
2021/12/29 06:15:15;;;;;;;38.05;12.25;;;7.70;94.60;;;;;;5076093;28;20032;-66
2021/12/29 06:17:41;;;;;;;37.50;9.18;;;7.70;94.60;;;;;;5090209;28;20400;-66
2021/12/29 06:20:09;;;;;;;36.95;9.63;;;7.70;94.60;;;;;;5089981;28;20181;-66
2021/12/29 06:22:35;;;;;;;31.08;9.93;;;7.80;94.50;;;;;;5071207;28;20048;-66
2021/12/29 06:25:02;;;;;;;25.60;8.95;;;7.70;94.60;;;;;;5070909;28;20040;-65
2021/12/29 06:27:27;;;;;;;39.53;9.40;;;7.70;94.60;;;;;;5075242;28;20040;-65
2021/12/29 06:29:53;;;;;;;41.45;9.70;;;7.80;94.60;;;;;;5090340;28;20060;-65
2021/12/29 06:32:19;;;;;;;30.30;9.45;;;7.70;94.60;;;;;;5073649;28;20051;-65
2021/12/29 06:34:45;;;;;;;38.88;12.40;;;7.70;94.60;;;;;;5080962;28;20562;-65
2021/12/29 06:37:13;;;;;;;36.17;10.13;;;7.80;94.70;;;;;;5089807;28;20037;-65
2021/12/29 06:39:43;;;;;;;47.75;11.55;;;7.80;94.70;;;;;;5079135;28;20044;-65
2021/12/29 06:42:09;;;;;;;40.58;9.88;;;7.70;94.70;;;;;;5074971;28;20039;-65
2021/12/29 06:44:35;;;;;;;37.35;9.40;;;7.70;94.80;;;;;;5086661;28;20036;-65
2021/12/29 06:47:01;;;;;;;40.22;11.13;;;7.80;94.90;;;;;;5074433;28;20028;-65
2021/12/29 06:49:27;;;;;;;40.40;9.45;;;7.80;94.80;;;;;;5070340;28;20424;-65
2021/12/29 06:51:52;;;;;;;31.00;8.48;;;7.70;94.80;;;;;;5081196;28;20487;-66
2021/12/29 06:54:18;;;;;;;40.17;8.85;;;7.80;94.90;;;;;;5074935;28;20098;-66
2021/12/29 06:56:44;;;;;;;32.08;8.00;;;7.80;94.90;;;;;;5083691;28;20036;-66
2021/12/29 06:59:09;;;;;;;33.60;8.90;;;7.80;94.90;;;;;;5082961;28;20046;-66
2021/12/29 07:01:35;;;;;;;49.10;8.90;;;7.80;94.80;;;;;;5092663;27;20564;-66
2021/12/29 07:04:01;;;;;;;44.60;9.05;;;7.90;94.80;;;;;;5131960;27;20066;-66
2021/12/29 07:06:27;;;;;;;38.40;8.32;;;7.90;94.90;;;;;;5131275;27;20047;-66
2021/12/29 07:08:52;;;;;;;47.72;9.55;;;7.90;94.90;;;;;;5129418;27;20547;-65
2021/12/29 07:11:18;;;;;;;38.72;8.13;;;7.90;94.90;;;;;;5128847;27;20071;-66
2021/12/29 07:13:44;;;;;;;38.65;11.68;;;7.90;94.90;;;;;;5109536;27;20047;-66
2021/12/29 07:16:11;;;;;;;35.92;10.02;;;7.90;94.90;;;;;;5111818;27;20047;-66
2021/12/29 07:18:37;;;;;;;40.70;9.32;;;7.90;94.90;;;;;;5130418;27;20419;-66
2021/12/29 07:21:03;;;;;;;44.55;10.63;;;7.90;94.90;;;;;;5130094;27;20027;-66
2021/12/29 07:23:29;;;;;;;28.80;9.57;;;7.90;94.90;;;;;;5128387;27;20039;-66
2021/12/29 07:25:55;;;;;;;38.28;10.02;;;7.90;94.90;;;;;;5129982;27;20039;-66
2021/12/29 07:28:21;;;;;;;39.13;9.65;;;7.90;94.90;;;;;;5126465;27;20122;-66
2021/12/29 07:30:46;;;;;;;55.28;9.75;;;8.00;94.90;;;;;;5129588;27;20043;-66
2021/12/29 07:33:12;;;;;;;42.47;9.57;;;8.00;94.90;;;;;;5111175;27;20035;-66
2021/12/29 07:35:38;;;;;;;31.67;8.73;;;8.00;94.90;;;;;;5128338;27;20063;-66
2021/12/29 07:38:03;;;;;;;59.17;10.63;;;8.00;94.90;;;;;;5110505;27;20035;-66
2021/12/29 07:40:30;;;;;;;33.38;9.23;;;8.00;94.90;;;;;;5131149;27;20078;-66
2021/12/29 07:42:56;;;;;;;51.00;10.52;;;7.90;94.90;;;;;;5112422;27;20062;-66
2021/12/29 07:45:25;;;;;;;36.53;10.27;;;7.90;94.90;;;;;;5121409;27;20043;-66
2021/12/29 07:47:50;;;;;;;29.83;9.63;;;7.90;94.80;;;;;;5114478;27;20043;-66
2021/12/29 07:50:19;;;;;;;48.05;10.52;;;8.00;94.90;;;;;;5116539;27;20062;-66
2021/12/29 07:52:48;;;;;;;42.72;9.50;;;8.00;94.80;;;;;;5092287;28;20581;-66
2021/12/29 07:55:18;;;;;;;31.42;8.60;;;7.90;94.80;;;;;;5120343;27;20047;-66
2021/12/29 07:57:45;;;;;;;32.80;9.15;;;7.90;94.80;;;;;;5110559;28;20044;-66
2021/12/29 08:00:11;;;;;;;22.65;7.53;;;7.90;94.80;;;;;;5111177;27;20132;-66
2021/12/29 08:02:37;;;;;;;32.15;7.90;;;8.00;94.80;;;;;;5090759;28;20542;-66
2021/12/29 08:05:09;;;;;;;22.10;8.70;;;7.90;94.70;;;;;;5110220;28;20047;-66
2021/12/29 08:07:35;;;;;;;17.00;7.45;;;7.90;94.80;;;;;;5128615;27;20043;-66
2021/12/29 08:10:01;;;;;;;20.02;8.20;;;7.90;94.70;;;;;;5130641;27;20039;-66
2021/12/29 08:12:27;;;;;;;23.77;8.77;;;7.90;94.80;;;;;;5117744;27;20044;-66
2021/12/29 08:14:53;;;;;;;23.40;7.38;;;7.90;94.80;;;;;;5110068;28;20035;-66
2021/12/29 08:17:18;;;;;;;20.50;8.07;;;7.90;94.80;;;;;;5110127;28;20526;-66
2021/12/29 08:19:45;;;;;;;18.95;7.93;;;7.90;94.80;;;;;;5110043;28;20040;-66
2021/12/29 08:22:11;;;;;;;17.58;7.35;;;7.90;94.80;;;;;;5109327;28;20044;-66
2021/12/29 08:24:37;;;;;;;18.17;8.05;;;8.00;94.70;;;;;;5092377;27;20131;-64
2021/12/29 08:27:04;;;;;;;23.10;7.25;;;7.90;94.70;;;;;;5122874;27;20031;-65
2021/12/29 08:29:30;;;;;;;19.48;7.70;;;7.90;94.80;;;;;;5110124;27;20495;-66
2021/12/29 08:31:57;;;;;;;20.25;7.88;;;8.00;94.70;;;;;;5118722;27;20053;-65
2021/12/29 08:34:23;;;;;;;15.95;8.35;;;8.00;94.70;;;;;;5130267;27;20250;-65
2021/12/29 08:36:49;;;;;;;17.13;7.03;;;8.00;94.70;;;;;;5112141;27;20130;-65
2021/12/29 08:39:15;;;;;;;18.65;7.50;;;8.00;94.70;;;;;;5078865;28;20130;-65
2021/12/29 08:41:41;;;;;;;16.67;7.43;;;8.00;94.70;;;;;;5129790;27;20039;-65
2021/12/29 08:44:06;;;;;;;13.75;6.05;;;8.00;94.70;;;;;;5129654;27;20051;-65
2021/12/29 08:46:32;;;;;;;22.13;7.53;;;8.00;94.60;;;;;;5130067;28;20138;-65
2021/12/29 08:48:58;;;;;;;13.95;6.43;;;8.00;94.60;;;;;;5130050;28;20436;-65
2021/12/29 08:51:24;;;;;;;20.20;7.00;;;8.00;94.70;;;;;;5112041;28;20079;-66
2021/12/29 08:53:50;;;;;;;17.88;6.00;;;8.00;94.60;;;;;;5091485;28;20144;-65
2021/12/29 08:56:16;;;;;;;13.02;5.18;;;8.00;94.60;;;;;;5121562;28;20058;-65
2021/12/29 08:58:44;;;;;;;12.10;4.97;;;8.00;94.50;;;;;;5109531;28;20140;-65
2021/12/29 09:01:09;;;;;;;20.02;5.57;;;8.00;94.50;;;;;;5119000;28;20063;-66
2021/12/29 09:03:36;;;;;;;16.80;7.13;;;8.00;94.40;;;;;;5109471;28;20138;-66
2021/12/29 09:06:02;;;;;;;9.85;4.30;;;8.10;94.50;;;;;;5125651;28;20065;-66
2021/12/29 09:08:28;;;;;;;16.67;4.47;;;8.00;94.40;;;;;;5128811;28;20480;-66
2021/12/29 09:10:55;;;;;;;18.25;4.72;;;8.00;94.20;;;;;;5125775;28;20047;-66
2021/12/29 09:13:21;;;;;;;20.58;4.60;;;8.00;94.30;;;;;;5107917;28;20035;-66
2021/12/29 09:15:47;;;;;;;15.70;3.92;;;8.00;94.30;;;;;;5107948;28;20104;-68
2021/12/29 09:18:13;;;;;;;15.10;4.20;;;8.00;94.30;;;;;;5126901;27;20480;-65
2021/12/29 09:20:45;;;;;;;12.63;3.70;;;8.10;94.20;;;;;;5119721;27;20081;-66
2021/12/29 09:23:11;;;;;;;25.23;4.32;;;8.10;94.20;;;;;;5094989;28;20396;-66
2021/12/29 09:25:39;;;;;;;14.27;4.20;;;8.10;94.10;;;;;;5112395;28;20220;-66
2021/12/29 09:28:06;;;;;;;17.92;5.43;;;8.10;94.20;;;;;;5131509;27;20107;-66
2021/12/29 09:30:34;;;;;;;15.15;3.90;;;8.10;94.20;;;;;;5114065;27;20078;-66
2021/12/29 09:33:01;;;;;;;13.05;5.40;;;8.10;94.10;;;;;;5132958;27;20035;-66
2021/12/29 09:35:28;;;;;;;16.42;5.78;;;8.10;94.10;;;;;;5114244;27;20043;-66
2021/12/29 09:37:54;;;;;;;13.13;4.03;;;8.20;94.00;;;;;;5133282;27;20051;-66
2021/12/29 09:40:21;;;;;;;8.63;3.38;;;8.20;94.00;;;;;;5133533;27;20043;-66
2021/12/29 09:42:48;;;;;;;18.10;4.10;;;8.10;94.00;;;;;;5133503;27;20407;-66
2021/12/29 09:45:14;;;;;;;13.10;3.53;;;8.10;93.90;;;;;;5132259;27;20118;-66
2021/12/29 09:47:40;;;;;;;12.35;3.80;;;8.20;93.90;;;;;;5132280;27;20076;-66
2021/12/29 09:50:10;;;;;;;19.63;4.68;;;8.10;93.90;;;;;;5132850;27;20043;-66
2021/12/29 09:52:36;;;;;;;17.45;5.55;;;8.10;93.80;;;;;;5133302;27;20039;-66
2021/12/29 09:55:04;;;;;;;23.08;4.70;;;8.20;93.80;;;;;;5133220;27;20066;-66
2021/12/29 09:57:34;;;;;;;17.80;3.92;;;8.10;93.60;;;;;;5104786;28;20042;-67
2021/12/29 10:00:01;;;;;;;12.90;3.28;;;8.10;93.70;;;;;;5116179;27;20052;-66
2021/12/29 10:02:27;;;;;;;19.35;3.75;;;8.00;93.00;;;;;;5114021;27;20048;-66
2021/12/29 10:04:56;;;;;;;17.27;3.88;;;8.00;93.60;;;;;;5116010;27;20526;-66
2021/12/29 10:07:22;;;;;;;18.05;3.75;;;8.10;93.50;;;;;;5112806;27;20095;-67
2021/12/29 10:09:48;;;;;;;17.10;4.13;;;8.00;93.50;;;;;;5131774;27;20050;-67
2021/12/29 10:12:19;;;;;;;17.75;3.65;;;8.00;93.50;;;;;;5107327;27;20036;-66
2021/12/29 10:14:57;;;;;;;17.30;3.17;;;8.00;93.40;;;;;;5094373;28;20039;-67
2021/12/29 10:17:28;;;;;;;27.65;6.60;;;8.10;93.50;;;;;;5119427;27;20031;-67
2021/12/29 10:20:14;;;;;;;17.85;4.90;;;8.00;93.50;;;;;;5130921;27;20126;-67
2021/12/29 10:22:41;;;;;;;12.38;3.58;;;8.10;93.50;;;;;;5101899;28;20511;-67
2021/12/29 10:25:13;;;;;;;14.77;3.65;;;8.00;93.30;;;;;;5123564;27;20031;-67
2021/12/29 10:27:40;;;;;;;;;;;8.00;93.50;;;;;;5120388;27;20044;-67
2021/12/29 10:30:22;;;;;;;22.20;3.95;;;8.00;93.20;;;;;;5114811;27;19927;-67
2021/12/29 10:32:49;;;;;;;18.25;3.15;;;8.10;93.50;;;;;;5095001;28;20130;-67
2021/12/29 10:35:21;;;;;;;14.45;3.13;;;8.10;93.50;;;;;;5113778;27;20036;-67
2021/12/29 10:37:47;;;;;;;22.40;4.13;;;8.10;93.50;;;;;;5113909;27;20088;-66
2021/12/29 10:40:32;;;;;;;24.58;3.58;;;8.10;93.40;;;;;;5097567;28;20055;-67
2021/12/29 10:43:01;;;;;;;22.23;3.30;;;8.20;93.50;;;;;;5126571;27;20515;-66
2021/12/29 10:45:32;;;;;;;24.98;4.45;;;8.20;93.40;;;;;;5124911;27;20051;-66
2021/12/29 10:47:58;;;;;;;19.13;3.33;;;8.20;93.40;;;;;;5111888;27;20047;-67
2021/12/29 10:50:27;;;;;;;13.77;3.05;;;8.20;93.30;;;;;;5119288;27;20083;-66
2021/12/29 10:52:55;;;;;;;17.33;4.70;;;8.30;93.30;;;;;;5120114;27;20047;-67
2021/12/29 10:55:22;;;;;;;18.02;3.45;;;8.30;93.20;;;;;;5123781;27;20038;-67
2021/12/29 10:58:00;;;;;;;27.85;6.43;;;8.20;93.20;;;;;;5115710;27;20047;-67
2021/12/29 11:00:26;;;;;;;19.27;4.18;;;8.30;93.30;;;;;;5077181;28;20043;-66
2021/12/29 11:02:52;;;;;;;24.58;3.90;;;8.20;93.20;;;;;;5102248;28;20084;-67
2021/12/29 11:05:18;;;;;;;21.90;3.85;;;8.30;93.20;;;;;;5093067;28;20504;-66
2021/12/29 11:07:44;;;;;;;15.90;3.83;;;8.40;93.20;;;;;;5121589;27;20043;-66
2021/12/29 11:10:12;;;;;;;18.85;4.07;;;8.70;93.80;;;;;;5129535;27;20769;-67
2021/12/29 11:12:54;;;;;;;13.75;2.95;;;8.90;93.40;;;;;;5131450;27;20064;-66
2021/12/29 11:15:30;;;;;;;17.50;3.58;;;9.00;93.10;;;;;;5131288;27;20047;-66
2021/12/29 11:18:01;;;;;;;17.02;4.47;;;8.90;92.80;;;;;;5112563;27;20455;-66
2021/12/29 11:20:28;;;;;;;19.15;2.95;;;8.80;92.60;;;;;;5131336;27;20651;-66
2021/12/29 11:23:13;;;;;;;16.95;3.45;;;8.80;92.50;;;;;;5131503;27;20039;-67
2021/12/29 11:25:41;;;;;;;18.27;3.15;;;8.80;92.50;;;;;;5131553;27;20047;-67
2021/12/29 11:28:18;;;;;;;25.70;4.28;;;8.70;92.40;;;;;;5130693;27;20579;-67
2021/12/29 11:30:44;;;;;;;12.93;3.25;;;8.80;92.50;;;;;;5100934;27;20072;-67
2021/12/29 11:33:11;;;;;;;17.35;4.88;;;8.70;92.40;;;;;;5095078;28;20040;-67
2021/12/29 11:35:42;;;;;;;10.88;3.17;;;8.70;92.20;;;;;;5127977;27;20418;-66
2021/12/29 11:38:09;;;;;;;8.55;3.20;;;8.60;92.20;;;;;;5120366;27;20031;-68
2021/12/29 11:40:40;;;;;;;12.48;3.15;;;8.60;92.20;;;;;;5093233;27;20130;-67
2021/12/29 11:43:07;;;;;;;10.65;3.08;;;8.60;92.10;;;;;;5107779;27;20054;-67
2021/12/29 11:45:34;;;;;;;11.45;3.70;;;8.60;92.00;;;;;;5095641;27;20081;-66
2021/12/29 11:48:00;;;;;;;12.50;4.03;;;8.80;92.10;;;;;;5127110;27;20050;-67
2021/12/29 11:50:33;;;;;;;15.32;3.70;;;8.80;91.80;;;;;;5119079;27;20096;-66
2021/12/29 11:53:09;;;;;;;14.75;3.55;;;8.80;91.60;;;;;;5117777;27;20055;-66
2021/12/29 11:55:42;;;;;;;10.48;3.10;;;8.80;91.60;;;;;;5096836;28;20075;-66
2021/12/29 11:58:11;;;;;;;11.82;3.33;;;8.90;91.60;;;;;;5091854;28;20683;-66
2021/12/29 12:00:37;;;;;;;9.30;3.53;;;8.90;91.50;;;;;;5117518;27;20048;-66
2021/12/29 12:03:14;;;;;;;13.27;4.00;;;8.80;91.40;;;;;;5127812;27;20062;-65
2021/12/29 12:05:42;;;;;;;9.73;2.95;;;8.90;91.40;;;;;;5127697;27;20040;-67
2021/12/29 12:08:34;;;;;;;8.13;2.88;;;8.90;91.30;;;;;;5130654;27;20051;-65
2021/12/29 12:11:01;;;;;;;12.02;4.43;;;8.90;91.20;;;;;;5124085;27;20079;-66
2021/12/29 12:13:34;;;;;;;6.38;3.22;;;8.80;91.20;;;;;;5121983;27;20043;-66
2021/12/29 12:16:08;;;;;;;6.90;3.58;;;8.90;91.30;;;;;;5129991;27;20457;-66
2021/12/29 12:18:51;;;;;;;11.23;3.70;;;8.90;91.20;;;;;;5130105;27;20201;-67
2021/12/29 12:21:26;;;;;;;12.00;3.83;;;8.90;91.00;;;;;;5122296;27;20051;-66
2021/12/29 12:23:53;;;;;;;11.57;3.60;;;8.80;91.00;;;;;;5112247;27;20051;-66
2021/12/29 12:26:22;;;;;;;13.43;3.72;;;8.90;91.10;;;;;;5111863;28;20391;-66
2021/12/29 12:28:52;;;;;;;13.80;4.20;;;8.90;90.90;;;;;;5111856;27;20042;-66
2021/12/29 12:31:31;;;;;;;10.32;3.65;;;8.90;90.90;;;;;;5116133;27;20095;-65
2021/12/29 12:34:12;;;;;;;12.65;4.32;;;8.90;90.90;;;;;;5102732;27;20039;-66
2021/12/29 12:36:40;;;;;;;12.07;3.88;;;8.90;90.80;;;;;;5111991;27;20092;-65
2021/12/29 12:39:16;;;;;;;12.05;3.53;;;8.80;90.80;;;;;;5129805;27;20043;-65
2021/12/29 12:41:45;;;;;;;10.68;3.42;;;8.90;90.80;;;;;;5123618;27;20116;-65
2021/12/29 12:44:11;;;;;;;10.30;4.15;;;8.80;90.60;;;;;;5128055;27;20575;-65
2021/12/29 12:46:43;;;;;;;8.23;3.40;;;8.80;90.50;;;;;;5104939;28;20043;-65
2021/12/29 12:49:16;;;;;;;;;;;8.90;90.60;;;;;;5111306;28;20050;-65
2021/12/29 12:51:56;;;;;;;11.80;3.70;;;8.70;90.00;;;;;;5117335;28;19919;-65
2021/12/29 12:54:23;;;;;;;6.90;1.80;;;8.70;90.40;;;;;;5111983;27;20051;-69